createdAt,value
2022-09-07T00:00:06.234Z,1.58
2022-09-07T00:02:32.752Z,0.90
2022-09-07T00:05:01.559Z,1.13
2022-09-07T00:07:28.032Z,1.15
2022-09-07T00:09:54.529Z,1.10
2022-09-07T00:12:21.106Z,1.08
2022-09-07T00:14:49.876Z,1.13
2022-09-07T00:17:16.329Z,1.90
2022-09-07T00:19:48.261Z,1.30
2022-09-07T00:22:17.161Z,1.40
2022-09-07T00:24:46.114Z,1.50
2022-09-07T00:27:14.839Z,1.00
2022-09-07T00:29:43.764Z,1.60
2022-09-07T00:32:10.186Z,1.33
2022-09-07T00:34:38.899Z,1.33
2022-09-07T00:37:05.364Z,1.10
2022-09-07T00:39:31.893Z,1.08
2022-09-07T00:42:00.725Z,1.52
2022-09-07T00:44:44.376Z,1.20
2022-09-07T00:47:36.808Z,1.50
2022-09-07T00:50:19.166Z,1.50
2022-09-07T00:52:52.904Z,1.17
2022-09-07T00:55:19.837Z,1.30
2022-09-07T00:57:49.524Z,1.17
2022-09-07T01:00:18.824Z,1.08
2022-09-07T01:02:47.098Z,1.50
2022-09-07T01:05:19.813Z,1.45
2022-09-07T01:07:49.030Z,1.30
2022-09-07T01:10:17.726Z,1.35
2022-09-07T01:12:46.657Z,1.27
2022-09-07T01:15:13.117Z,1.33
2022-09-07T01:17:45.786Z,1.75
2022-09-07T01:20:42.110Z,1.50
2022-09-07T01:23:25.976Z,1.85
2022-09-07T01:26:25.777Z,1.50
2022-09-07T01:28:59.177Z,1.50
2022-09-07T01:31:45.979Z,1.20
2022-09-07T01:34:27.387Z,1.25
2022-09-07T01:37:07.842Z,1.15
2022-09-07T01:39:52.181Z,1.42
2022-09-07T01:42:21.683Z,1.48
2022-09-07T01:44:58.229Z,1.10
2022-09-07T01:47:47.279Z,1.40
2022-09-07T01:50:26.787Z,1.48
2022-09-07T01:52:54.478Z,1.40
2022-09-07T01:55:52.047Z,1.30
2022-09-07T01:58:22.065Z,1.20
2022-09-07T02:00:53.773Z,1.10
2022-09-07T02:04:11.073Z,1.30
2022-09-07T02:06:41.591Z,1.45
2022-09-07T02:09:15.062Z,1.30
2022-09-07T02:11:45.571Z,1.25
2022-09-07T02:14:18.614Z,1.02
2022-09-07T02:17:00.175Z,1.20
2022-09-07T02:19:30.385Z,1.13
2022-09-07T02:22:02.992Z,1.35
2022-09-07T02:24:37.695Z,1.20
2022-09-07T02:27:16.522Z,1.77
2022-09-07T02:29:45.772Z,1.55
2022-09-07T02:32:12.232Z,1.90
2022-09-07T02:34:38.860Z,1.63
2022-09-07T02:37:09.722Z,1.73
2022-09-07T02:39:36.374Z,1.75
2022-09-07T02:42:03.613Z,2.05
2022-09-07T02:44:32.450Z,2.00
2022-09-07T02:47:07.638Z,1.70
2022-09-07T02:49:49.323Z,1.80
2022-09-07T02:52:27.184Z,1.60
2022-09-07T02:55:05.497Z,1.90
2022-09-07T02:57:51.847Z,1.50
2022-09-07T03:00:26.041Z,1.10
2022-09-07T03:02:55.658Z,1.30
2022-09-07T03:05:37.149Z,1.50
2022-09-07T03:08:26.284Z,1.35
2022-09-07T03:10:53.621Z,1.38
2022-09-07T03:13:24.325Z,1.50
2022-09-07T03:15:55.549Z,1.30
2022-09-07T03:18:23.819Z,1.38
2022-09-07T03:20:50.321Z,1.55
2022-09-07T03:23:16.801Z,1.30
2022-09-07T03:25:43.453Z,1.50
2022-09-07T03:28:14.712Z,1.50
2022-09-07T03:30:47.333Z,1.38
2022-09-07T03:33:17.292Z,1.30
2022-09-07T03:35:57.476Z,1.60
2022-09-07T03:38:24.070Z,1.27
2022-09-07T03:41:06.298Z,1.63
2022-09-07T03:43:35.362Z,1.52
2022-09-07T03:46:04.407Z,1.92
2022-09-07T03:48:32.421Z,1.60
2022-09-07T03:51:04.012Z,1.77
2022-09-07T03:53:34.190Z,1.85
2022-09-07T03:56:03.633Z,1.98
2022-09-07T03:58:31.652Z,1.73
2022-09-07T04:00:59.703Z,1.30
2022-09-07T04:03:26.586Z,1.08
2022-09-07T04:05:53.106Z,1.33
2022-09-07T04:08:19.545Z,1.42
2022-09-07T04:10:48.288Z,2.08
2022-09-07T04:13:16.822Z,2.00
2022-09-07T04:15:43.576Z,1.55
2022-09-07T04:18:14.808Z,1.55
2022-09-07T04:20:41.237Z,1.88
2022-09-07T04:23:07.730Z,1.60
2022-09-07T04:25:34.853Z,1.80
2022-09-07T04:28:04.141Z,1.85
2022-09-07T04:30:35.424Z,1.80
2022-09-07T04:33:01.990Z,1.52
2022-09-07T04:35:28.483Z,1.65
2022-09-07T04:37:54.952Z,1.83
2022-09-07T04:40:21.479Z,1.30
2022-09-07T04:42:48.014Z,1.75
2022-09-07T04:45:14.490Z,1.60
2022-09-07T04:47:47.150Z,2.03
2022-09-07T04:50:16.843Z,1.77
2022-09-07T04:52:46.473Z,2.63
2022-09-07T04:55:12.975Z,1.95
2022-09-07T04:57:39.463Z,2.33
2022-09-07T05:00:10.992Z,2.03
2022-09-07T05:02:44.914Z,2.13
2022-09-07T05:05:13.860Z,1.85
2022-09-07T05:07:40.371Z,2.17
2022-09-07T05:10:07.106Z,2.45
2022-09-07T05:12:33.571Z,2.20
2022-09-07T05:15:00.120Z,1.63
2022-09-07T05:17:26.667Z,1.92
2022-09-07T05:19:54.799Z,2.08
2022-09-07T05:22:22.300Z,1.95
2022-09-07T05:24:48.799Z,2.00
2022-09-07T05:27:15.253Z,1.73
2022-09-07T05:32:30.420Z,2.22
2022-09-07T05:34:59.235Z,1.50
2022-09-07T05:37:25.684Z,1.65
2022-09-07T05:39:55.016Z,1.88
2022-09-07T05:42:22.677Z,1.98
2022-09-07T05:44:53.951Z,1.63
2022-09-07T05:47:22.640Z,1.70
2022-09-07T05:49:50.341Z,2.10
2022-09-07T05:52:17.542Z,1.60
2022-09-07T05:54:44.009Z,1.63
2022-09-07T05:57:11.727Z,1.75
2022-09-07T05:59:40.388Z,1.65
2022-09-07T06:02:07.676Z,1.48
2022-09-07T06:04:39.093Z,1.80
2022-09-07T06:07:21.062Z,1.75
2022-09-07T06:12:40.023Z,1.50
2022-09-07T06:15:07.173Z,1.48
2022-09-07T06:17:33.618Z,1.38
2022-09-07T06:20:00.176Z,1.30
2022-09-07T06:22:31.259Z,1.63
2022-09-07T06:24:57.940Z,1.70
2022-09-07T06:27:27.061Z,1.40
2022-09-07T06:29:53.716Z,1.40
2022-09-07T06:35:10.222Z,1.10
2022-09-07T06:37:38.992Z,1.42
2022-09-07T06:40:06.091Z,1.10
2022-09-07T06:42:32.716Z,1.75
2022-09-07T06:45:04.144Z,1.70
2022-09-07T06:47:30.563Z,1.60
2022-09-07T06:49:57.062Z,1.50
2022-09-07T06:52:23.849Z,1.75
2022-09-07T06:55:00.255Z,2.05
2022-09-07T06:57:27.266Z,1.48
2022-09-07T06:59:55.882Z,1.73
2022-09-07T07:02:26.906Z,1.70
2022-09-07T07:04:53.362Z,1.55
2022-09-07T07:07:24.666Z,1.65
2022-09-07T07:09:56.052Z,1.33
2022-09-07T07:14:47.837Z,1.48
2022-09-07T07:17:14.280Z,1.40
2022-09-07T07:19:40.780Z,1.17
2022-09-07T07:22:29.701Z,1.42
2022-09-07T07:24:56.667Z,1.23
2022-09-07T07:27:25.324Z,1.10
2022-09-07T07:29:54.659Z,1.60
2022-09-07T07:32:26.047Z,1.50
2022-09-07T07:34:57.213Z,1.33
2022-09-07T07:37:27.855Z,1.55
2022-09-07T07:42:43.685Z,1.33
2022-09-07T07:47:57.610Z,1.40
2022-09-07T07:50:32.093Z,1.20
2022-09-07T07:55:50.673Z,1.20
2022-09-07T07:58:17.231Z,1.20
2022-09-07T08:00:54.381Z,1.08
2022-09-07T08:03:27.417Z,1.30
2022-09-07T08:05:57.052Z,1.48
2022-09-07T08:08:26.284Z,1.20
2022-09-07T08:10:52.926Z,1.30
2022-09-07T08:13:21.880Z,1.38
2022-09-07T08:15:50.750Z,1.75
2022-09-07T08:18:17.503Z,1.58
2022-09-07T08:20:44.223Z,1.50
2022-09-07T08:23:11.466Z,1.60
2022-09-07T08:25:52.489Z,1.42
2022-09-07T08:28:20.211Z,1.60
2022-09-07T08:30:46.604Z,1.88
2022-09-07T08:33:13.088Z,1.35
2022-09-07T08:35:40.635Z,1.40
2022-09-07T08:38:07.362Z,1.60
2022-09-07T08:40:36.308Z,1.60
2022-09-07T08:43:27.952Z,1.45
2022-09-07T08:45:58.058Z,1.27
2022-09-07T08:48:31.114Z,1.10
2022-09-07T08:51:24.225Z,1.30
2022-09-07T08:53:53.236Z,1.48
2022-09-07T08:56:24.745Z,1.40
2022-09-07T08:58:54.362Z,1.42
2022-09-07T09:01:31.728Z,1.60
2022-09-07T09:06:54.080Z,1.52
2022-09-07T09:10:02.024Z,1.10
2022-09-07T09:12:55.079Z,1.35
2022-09-07T09:15:43.343Z,1.50
2022-09-07T09:18:44.710Z,1.10
2022-09-07T09:21:19.765Z,1.40
2022-09-07T09:23:52.236Z,1.33
2022-09-07T09:26:26.922Z,1.48
2022-09-07T09:28:58.127Z,1.20
2022-09-07T09:31:29.208Z,1.30
2022-09-07T09:34:20.393Z,1.40
2022-09-07T09:36:56.973Z,1.50
2022-09-07T09:39:37.100Z,1.67
2022-09-07T09:42:09.661Z,1.50
2022-09-07T09:44:38.264Z,1.20
2022-09-07T09:49:55.758Z,1.60
2022-09-07T09:52:28.988Z,1.30
2022-09-07T09:55:17.144Z,1.70
2022-09-07T10:03:57.405Z,1.20
2022-09-07T10:06:25.958Z,1.30
2022-09-07T10:08:54.676Z,1.30
2022-09-07T10:14:33.076Z,1.30
2022-09-07T10:17:02.137Z,1.10
2022-09-07T10:19:28.621Z,1.30
2022-09-07T10:22:00.286Z,1.20
2022-09-07T10:24:37.595Z,1.48
2022-09-07T10:27:41.249Z,1.40
2022-09-07T10:30:16.078Z,1.20
2022-09-07T10:33:20.809Z,1.08
2022-09-07T10:35:59.193Z,1.50
2022-09-07T10:38:27.303Z,1.40
2022-09-07T10:40:59.170Z,1.48
2022-09-07T10:43:33.733Z,1.10
2022-09-07T10:46:06.120Z,1.30
2022-09-07T10:48:40.601Z,1.10
2022-09-07T10:51:18.690Z,1.10
2022-09-07T10:57:33.931Z,1.15
2022-09-07T11:00:12.366Z,1.35
2022-09-07T11:02:41.246Z,1.17
2022-09-07T11:05:36.067Z,1.30
2022-09-07T11:08:20.221Z,1.52
2022-09-07T11:11:04.247Z,1.52
2022-09-07T11:13:44.777Z,1.23
2022-09-07T11:16:51.062Z,2.10
2022-09-07T11:19:38.357Z,1.50
2022-09-07T11:22:22.952Z,1.20
2022-09-07T11:28:17.376Z,1.67
2022-09-07T11:30:50.865Z,1.70
2022-09-07T11:33:23.545Z,1.58
2022-09-07T11:36:02.270Z,1.75
2022-09-07T11:38:39.114Z,1.13
2022-09-07T11:41:30.499Z,1.40
2022-09-07T11:43:59.256Z,1.20
2022-09-07T11:46:39.351Z,1.17
2022-09-07T11:49:14.992Z,1.15
2022-09-07T11:51:53.705Z,1.30
2022-09-07T11:54:42.466Z,1.20
2022-09-07T11:57:14.738Z,1.20
2022-09-07T11:59:44.081Z,1.10
2022-09-07T12:02:58.732Z,1.00
2022-09-07T12:05:41.412Z,1.20
2022-09-07T12:08:28.606Z,1.23
2022-09-07T12:11:10.121Z,1.10
2022-09-07T12:13:57.016Z,1.20
2022-09-07T12:16:40.786Z,1.50
2022-09-07T12:19:12.810Z,1.17
2022-09-07T12:21:43.651Z,1.10
2022-09-07T12:24:43.349Z,1.02
2022-09-07T12:27:10.945Z,1.10
2022-09-07T12:29:37.667Z,1.10
2022-09-07T12:34:58.425Z,1.20
2022-09-07T12:37:27.588Z,1.23
2022-09-07T12:40:28.025Z,1.33
2022-09-07T12:43:12.739Z,1.02
2022-09-07T12:45:39.052Z,1.40
2022-09-07T12:48:10.840Z,1.70
2022-09-07T12:50:56.576Z,0.93
2022-09-07T12:53:34.554Z,0.95
2022-09-07T12:56:43.099Z,1.10
2022-09-07T12:59:28.076Z,1.35
2022-09-07T13:02:00.323Z,1.10
2022-09-07T13:05:07.653Z,1.10
2022-09-07T13:08:11.073Z,1.55
2022-09-07T13:10:44.091Z,1.55
2022-09-07T13:13:16.806Z,1.20
2022-09-07T13:15:48.554Z,1.40
2022-09-07T13:18:27.313Z,1.45
2022-09-07T13:21:11.906Z,1.30
2022-09-07T13:23:40.061Z,1.55
2022-09-07T13:26:12.629Z,1.05
2022-09-07T13:29:11.521Z,1.58
2022-09-07T13:31:49.331Z,1.20
2022-09-07T13:34:36.111Z,1.15
2022-09-07T13:37:07.550Z,1.13
2022-09-07T13:39:46.124Z,1.60
2022-09-07T13:42:18.784Z,1.25
2022-09-07T13:44:53.391Z,1.27
2022-09-07T13:47:32.000Z,1.10
2022-09-07T13:50:02.311Z,1.45
2022-09-07T13:52:42.736Z,1.33
2022-09-07T13:55:25.934Z,1.30
2022-09-07T13:58:17.885Z,1.00
2022-09-07T14:00:53.759Z,1.05
2022-09-07T14:03:21.663Z,0.85
2022-09-07T14:05:48.036Z,1.10
2022-09-07T14:08:30.853Z,1.17
2022-09-07T14:10:57.248Z,1.13
2022-09-07T14:13:23.601Z,0.90
2022-09-07T14:15:50.889Z,1.30
2022-09-07T14:18:30.670Z,0.90
2022-09-07T14:20:58.621Z,0.90
2022-09-07T14:23:39.765Z,0.85
2022-09-07T14:26:19.020Z,1.10
2022-09-07T14:28:47.642Z,0.95
2022-09-07T14:31:21.740Z,1.15
2022-09-07T14:33:56.692Z,1.25
2022-09-07T14:36:47.207Z,1.00
2022-09-07T14:39:15.655Z,1.00
2022-09-07T14:41:43.207Z,1.55
2022-09-07T14:44:39.042Z,1.00
2022-09-07T14:47:29.754Z,1.20
2022-09-07T14:50:05.845Z,0.80
2022-09-07T14:52:42.271Z,1.02
2022-09-07T14:55:29.389Z,1.50
2022-09-07T14:58:13.800Z,1.20
2022-09-07T15:00:40.123Z,0.98
2022-09-07T15:03:30.609Z,1.40
2022-09-07T15:06:01.393Z,1.25
2022-09-07T15:08:36.930Z,1.38
2022-09-07T15:11:33.351Z,1.27
2022-09-07T15:14:02.651Z,1.77
2022-09-07T15:16:37.419Z,1.30
2022-09-07T15:19:33.520Z,1.30
2022-09-07T15:22:00.597Z,1.30
2022-09-07T15:24:26.948Z,0.90
2022-09-07T15:27:08.767Z,1.15
2022-09-07T15:29:37.430Z,1.15
2022-09-07T15:32:11.234Z,1.17
2022-09-07T15:34:37.667Z,1.20
2022-09-07T15:38:01.140Z,1.10
2022-09-07T15:39:51.109Z,1.05
2022-09-07T15:45:05.519Z,1.02
2022-09-07T15:47:52.203Z,1.20
2022-09-07T15:50:23.240Z,1.10
2022-09-07T15:52:52.280Z,1.13
2022-09-07T15:55:20.705Z,1.20
2022-09-07T15:57:54.491Z,1.00
2022-09-07T16:00:28.927Z,1.20
2022-09-07T16:03:10.825Z,1.30
2022-09-07T16:05:43.938Z,1.38
2022-09-07T16:08:38.496Z,1.10
2022-09-07T16:11:18.066Z,1.13
2022-09-07T16:13:48.118Z,1.00
2022-09-07T16:16:15.675Z,1.30
2022-09-07T16:18:46.908Z,1.08
2022-09-07T16:21:17.815Z,1.23
2022-09-07T16:23:47.855Z,1.35
2022-09-07T16:26:18.609Z,1.10
2022-09-07T16:28:49.322Z,1.15
2022-09-07T16:31:21.313Z,1.50
2022-09-07T16:33:48.497Z,1.20
2022-09-07T16:36:18.031Z,1.33
2022-09-07T16:38:48.218Z,1.33
2022-09-07T16:41:20.061Z,1.00
2022-09-07T16:43:46.661Z,1.27
2022-09-07T16:46:16.950Z,1.40
2022-09-07T16:48:44.073Z,1.02
2022-09-07T16:51:16.305Z,1.20
2022-09-07T16:53:43.215Z,1.17
2022-09-07T16:56:16.939Z,1.25
2022-09-07T16:58:51.329Z,0.80
2022-09-07T17:01:22.278Z,1.10
2022-09-07T17:03:49.772Z,1.20
2022-09-07T17:06:20.914Z,1.10
2022-09-07T17:08:49.807Z,1.13
2022-09-07T17:11:27.479Z,1.20
2022-09-07T17:13:58.320Z,1.20
2022-09-07T17:16:27.640Z,1.17
2022-09-07T17:21:43.180Z,1.27
2022-09-07T17:24:12.992Z,1.30
2022-09-07T17:26:42.216Z,1.20
2022-09-07T17:29:09.544Z,1.35
2022-09-07T17:34:23.450Z,2.00
2022-09-07T17:36:50.264Z,1.85
2022-09-07T17:39:19.686Z,1.60
2022-09-07T17:41:48.043Z,1.50
2022-09-07T17:44:16.773Z,1.10
2022-09-07T17:46:43.419Z,1.23
2022-09-07T17:49:12.214Z,1.40
2022-09-07T17:51:41.370Z,1.23
2022-09-07T17:54:13.333Z,1.08
2022-09-07T17:56:40.926Z,1.00
2022-09-07T18:01:54.638Z,1.50
2022-09-07T18:04:24.007Z,1.33
2022-09-07T18:06:50.792Z,1.25
2022-09-07T18:09:17.282Z,1.60
2022-09-07T18:11:47.561Z,1.75
2022-09-07T18:14:15.019Z,1.80
2022-09-07T18:16:45.386Z,2.22
2022-09-07T18:19:12.597Z,2.00
2022-09-07T18:21:42.055Z,1.30
2022-09-07T18:24:22.973Z,1.10
2022-09-07T18:26:53.689Z,1.50
2022-09-07T18:29:29.544Z,1.55
2022-09-07T18:32:04.653Z,1.75
2022-09-07T18:34:32.213Z,1.30
2022-09-07T18:36:59.862Z,1.25
2022-09-07T18:39:27.013Z,1.50
2022-09-07T18:41:54.187Z,1.17
2022-09-07T18:47:08.559Z,1.30
2022-09-07T18:49:37.576Z,1.10
2022-09-07T18:54:54.989Z,1.10
2022-09-07T18:57:21.359Z,1.10
2022-09-07T18:59:47.731Z,1.30
2022-09-07T19:02:14.281Z,1.10
2022-09-07T19:07:30.161Z,1.10
2022-09-07T19:09:59.167Z,1.13
2022-09-07T19:12:26.038Z,1.00
2022-09-07T19:14:52.415Z,1.00
2022-09-07T19:17:21.660Z,1.05
2022-09-07T19:19:52.589Z,0.90
2022-09-07T19:22:21.392Z,0.98
2022-09-07T19:24:47.762Z,1.00
2022-09-07T19:27:14.284Z,0.95
2022-09-07T19:29:42.820Z,1.20
2022-09-07T19:32:11.614Z,0.90
2022-09-07T19:34:40.242Z,1.00
2022-09-07T19:37:07.964Z,1.00
2022-09-07T19:39:37.123Z,0.65
2022-09-07T19:42:04.992Z,0.90
2022-09-07T19:44:33.846Z,1.10
2022-09-07T19:47:00.778Z,1.10
2022-09-07T19:49:27.668Z,1.08
2022-09-07T19:51:54.361Z,0.95
2022-09-07T19:54:22.799Z,1.17
2022-09-07T19:56:49.187Z,0.88
2022-09-07T19:59:20.750Z,1.10
2022-09-07T20:01:49.343Z,1.10
2022-09-07T20:04:23.347Z,0.73
2022-09-07T20:06:51.044Z,0.80
2022-09-07T20:09:18.708Z,1.17
2022-09-07T20:11:47.334Z,1.00
2022-09-07T20:14:17.741Z,1.10
2022-09-07T20:16:44.230Z,1.02
2022-09-07T20:19:15.261Z,0.85
2022-09-07T20:21:42.493Z,1.00
2022-09-07T20:24:11.166Z,1.00
2022-09-07T20:26:37.527Z,0.70
2022-09-07T20:29:26.952Z,0.82
2022-09-07T20:31:50.331Z,1.20
2022-09-07T20:34:16.749Z,0.95
2022-09-07T20:36:43.217Z,0.80
2022-09-07T20:39:16.533Z,1.00
2022-09-07T20:41:42.899Z,1.20
2022-09-07T20:44:11.546Z,1.10
2022-09-07T20:46:38.079Z,1.27
2022-09-07T20:49:05.198Z,1.00
2022-09-07T20:51:31.720Z,1.10
2022-09-07T20:54:00.644Z,1.02
2022-09-07T20:56:28.500Z,1.20
2022-09-07T20:58:56.965Z,1.20
2022-09-07T21:01:25.975Z,1.00
2022-09-07T21:03:56.501Z,1.10
2022-09-07T21:06:23.991Z,1.20
2022-09-07T21:08:55.995Z,0.95
2022-09-07T21:11:29.386Z,1.15
2022-09-07T21:14:09.513Z,1.25
2022-09-07T21:16:36.567Z,1.10
2022-09-07T21:19:08.027Z,1.10
2022-09-07T21:21:39.324Z,1.13
2022-09-07T21:24:12.521Z,1.08
2022-09-07T21:26:38.896Z,1.00
2022-09-07T21:29:07.888Z,1.20
2022-09-07T21:31:34.378Z,1.08
2022-09-07T21:34:02.133Z,1.08
2022-09-07T21:36:29.472Z,1.30
2022-09-07T21:38:56.075Z,1.40
2022-09-07T21:41:23.865Z,1.00
2022-09-07T21:44:00.984Z,0.90
2022-09-07T21:46:34.326Z,1.00
2022-09-07T21:49:03.452Z,1.00
2022-09-07T21:51:30.170Z,1.10
2022-09-07T21:53:58.286Z,1.20
2022-09-07T21:56:25.344Z,1.27
2022-09-07T21:58:55.666Z,1.33
2022-09-07T22:01:23.548Z,1.27
2022-09-07T22:04:01.394Z,1.38
2022-09-07T22:06:30.368Z,1.65
2022-09-07T22:08:56.934Z,1.77
2022-09-07T22:11:24.937Z,1.65
2022-09-07T22:13:58.876Z,1.48
2022-09-07T22:16:25.792Z,1.58
2022-09-07T22:18:52.709Z,1.35
2022-09-07T22:21:25.731Z,1.40
2022-09-07T22:23:56.838Z,1.50
2022-09-07T22:26:27.402Z,1.60
2022-09-07T22:28:54.379Z,1.55
2022-09-07T22:31:32.207Z,1.60
2022-09-07T22:33:59.688Z,1.83
2022-09-07T22:36:28.477Z,1.83
2022-09-07T22:38:58.638Z,1.50
2022-09-07T22:41:38.109Z,1.95
2022-09-07T22:44:05.891Z,1.60
2022-09-07T22:46:38.283Z,1.20
2022-09-07T22:49:06.352Z,1.33
2022-09-07T22:51:33.457Z,1.70
2022-09-07T22:54:00.047Z,1.70
2022-09-07T22:56:31.407Z,1.60
2022-09-07T22:59:00.272Z,1.42
2022-09-07T23:01:28.416Z,1.70
2022-09-07T23:03:55.481Z,1.63
2022-09-07T23:06:24.476Z,1.77
2022-09-07T23:08:53.969Z,1.83
2022-09-07T23:11:25.471Z,1.77
2022-09-07T23:13:55.591Z,1.70
2022-09-07T23:16:29.805Z,1.55
2022-09-07T23:19:00.424Z,1.98
2022-09-07T23:21:27.875Z,1.67
2022-09-07T23:23:59.701Z,1.73
2022-09-07T23:26:30.993Z,1.60
2022-09-07T23:28:59.571Z,1.70
2022-09-07T23:31:26.860Z,1.88
2022-09-07T23:33:53.474Z,1.80
2022-09-07T23:36:20.288Z,1.80
2022-09-07T23:38:51.566Z,2.00
2022-09-07T23:41:20.053Z,1.80
2022-09-07T23:43:49.045Z,1.55
2022-09-07T23:46:16.025Z,1.80
2022-09-07T23:48:44.122Z,1.90
2022-09-07T23:51:13.268Z,2.05
2022-09-07T23:53:40.189Z,2.20
2022-09-07T23:56:09.399Z,1.63
2022-09-07T23:58:38.792Z,2.05
